Terminal Aerodrome Forecast
Issued by NWS

Home | Current Version | Previous Version | Text Only | Print | Product List | Glossary On
Versions: 1 2 3 4 5 6 7 8 9 10 11 12 13 14 15 16 17
000
FTUS46 KEKA 290546
TAFCEC
TAF
KCEC 290546Z 2906/3006 34012G18KT P6SM SKC
     FM290800 35005KT P6SM SKC
     FM291700 34008KT P6SM SKC
     FM291900 34010G16KT P6SM SKC
     FM292300 33015G20KT P6SM SKC=

USA.gov is the U.S. government's official web portal to all federal, state and local government web resources and services.